Seymour Johnson Air Force Base
KGSB : now visible

Airfield :











YOU CAN JOIN US ON...

 
LOGIN :

Register | Disclaimer

   EN    FR    IT 

 









Legend :    VFR   Marginal VFR   IFR   Intensive IFR   Very Intensive IFR
Visi :
Ceiling :
>= 8 km
>= 3000ft
5 to 8 km
1000 to 3000 ft
1500m to 5 km
500 to 1000 ft
800 to 1500m
200 to 500 ft
< 800m
< 200 ft
Symbols :   Thunderstorms  Fog  Heavy snow  Heavy precipitations  Wind > 20 kt







- Airport Elevation : 109 ft


KGSB - Seymour Johnson Air Force Base

CURRENT METAR :
  • 212056Z AUTO 20003KT 7SM CLR 29/17 A3019 RMK AO2 SLP226 T02860165 57018 $

EXPIRED METARs :
  • 211956Z AUTO 23003KT 6SM HZ CLR 29/16 A3021 RMK AO2 SLP232 T02880163 $
  • 211856Z AUTO 25006KT 7SM CLR 29/16 A3023 RMK AO2 SLP239 T02870162 $

TAF AMD TAF KGSB
Valid from the 20 at 23:00 until the 22 at 02:00 UTC


202350Z 2023/2202 VRB04KT 9999 SKC QNH3025INS
BECMG 2111/2112 24006KT 9999 SKC QNH3018INS TX28/2120Z TN12/2110Z LAST NO AMDS AFT 2023 NEXT 2304
No reported NOTAMs for that airfield.



MET'MAP, your aeronautical weather chart ! - Copyright ORBIFLY December 2007 - Disclaimer

ORBIFLY MET'MAP TEAM :

Programming & Development : Alexandra Zaïnal
Concept & Development : Baudouin d'Aumeries
Co-Development & Prog : Marc-Olivier Méhu
Technical & hardware support : Manuel Goepfert

Contact : metmap@orbifly.com




SOURCES & CREDITS :

   NOAA       Earth
Advisory